Time;durP1;ratioP1;P1;durP2;ratioP2;P2;SDS_P1;SDS_P2;PMS_P1;PMS_P2;Temp;Humidity;BMP_temperature;BMP_pressure;BME280_temperature;BME280_humidity;BME280_pressure;Samples;Min_cycle;Max_cycle;Signal;HPM_P1;HPM_P2
2022/06/13 00:04:31;;;;;;;4.43;3.00;;;;;;;;;;10438921;28;20063;-76
2022/06/13 00:09:34;;;;;;;2.67;1.98;;;;;;;;;;10437165;28;20056;-75
2022/06/13 00:14:38;;;;;;;4.18;3.08;;;;;;;;;;10420402;28;20053;-74
2022/06/13 00:19:41;;;;;;;10.90;3.60;;;;;;;;;;10417569;28;20493;-76
2022/06/13 00:24:43;;;;;;;6.17;4.03;;;;;;;;;;10446167;28;20040;-76
2022/06/13 00:29:50;;;;;;;9.35;4.53;;;;;;;;;;10428385;28;20664;-77
2022/06/13 00:34:52;;;;;;;6.93;3.85;;;;;;;;;;10443647;28;20076;-77
2022/06/13 00:39:55;;;;;;;10.40;4.78;;;;;;;;;;10436521;28;21439;-74
2022/06/13 00:45:09;;;;;;;9.17;5.63;;;;;;;;;;10417097;28;20547;-73
2022/06/13 00:50:12;;;;;;;;;;;;;;;;;;10414022;28;20287;-75
2022/06/13 00:55:17;;;;;;;10.27;5.60;;;;;;;;;;10420503;28;20410;-77
2022/06/13 01:00:21;;;;;;;7.70;4.97;;;;;;;;;;10420378;28;20064;-76
2022/06/13 01:05:26;;;;;;;10.68;5.78;;;;;;;;;;10438743;28;20041;-75
2022/06/13 01:16:03;;;;;;;7.13;3.80;;;;;;;;;;10426282;28;20055;-76
2022/06/13 01:21:14;;;;;;;;;;;;;;;;;;10453113;28;20038;-77
2022/06/13 01:26:52;;;;;;;8.25;4.93;;;;;;;;;;10431610;28;19995;-75
2022/06/13 01:32:09;;;;;;;9.98;5.35;;;;;;;;;;10433246;28;20268;-76
2022/06/13 01:37:19;;;;;;;12.05;6.30;;;;;;;;;;10434259;28;20515;-76
2022/06/13 01:42:30;;;;;;;7.95;4.05;;;;;;;;;;10443882;28;20045;-76
2022/06/13 01:47:37;;;;;;;8.95;5.00;;;;;;;;;;10450498;28;20432;-76
2022/06/13 01:52:48;;;;;;;11.00;6.38;;;;;;;;;;10449278;28;20067;-76
2022/06/13 01:57:56;;;;;;;7.90;5.05;;;;;;;;;;10449163;28;20381;-76
2022/06/13 02:03:04;;;;;;;9.98;6.13;;;;;;;;;;10431152;28;20505;-76
2022/06/13 02:08:09;;;;;;;10.88;6.20;;;;;;;;;;10449366;28;20084;-75
2022/06/13 02:13:28;;;;;;;11.73;6.03;;;;;;;;;;10442906;28;20040;-76
2022/06/13 02:18:34;;;;;;;11.65;5.88;;;;;;;;;;10425605;28;20464;-75
2022/06/13 02:23:39;;;;;;;9.02;5.82;;;;;;;;;;10450893;28;20519;-76
2022/06/13 02:28:44;;;;;;;10.25;5.32;;;;;;;;;;10430077;28;20034;-76
2022/06/13 02:33:53;;;;;;;10.40;5.10;;;;;;;;;;10433334;28;20479;-76
2022/06/13 02:38:58;;;;;;;7.72;4.50;;;;;;;;;;10425132;28;20399;-76
2022/06/13 02:44:04;;;;;;;7.82;4.80;;;;;;;;;;10448215;28;20112;-75
2022/06/13 02:49:11;;;;;;;10.13;4.93;;;;;;;;;;10431710;28;20048;-76
2022/06/13 02:54:17;;;;;;;7.63;4.07;;;;;;;;;;10441622;28;21017;-76
2022/06/13 02:59:22;;;;;;;5.93;3.72;;;;;;;;;;10428195;28;20134;-76
2022/06/13 03:04:31;;;;;;;6.72;3.75;;;;;;;;;;10451301;28;20083;-75
2022/06/13 03:09:36;;;;;;;2.63;1.92;;;;;;;;;;10447898;28;20060;-75
2022/06/13 03:14:45;;;;;;;7.63;4.05;;;;;;;;;;10428135;28;20306;-76
2022/06/13 03:19:51;;;;;;;5.05;2.63;;;;;;;;;;10451346;28;20036;-75
2022/06/13 03:24:58;;;;;;;7.70;4.30;;;;;;;;;;10448698;28;20028;-75
2022/06/13 03:30:09;;;;;;;6.57;1.87;;;;;;;;;;10434818;28;20102;-77
2022/06/13 03:35:15;;;;;;;7.00;4.45;;;;;;;;;;10449117;28;20087;-75
2022/06/13 03:40:20;;;;;;;10.02;5.03;;;;;;;;;;10429788;28;20477;-76
2022/06/13 03:45:24;;;;;;;7.18;4.05;;;;;;;;;;10448444;28;20436;-75
2022/06/13 03:50:30;;;;;;;8.52;4.40;;;;;;;;;;10420484;28;20029;-75
2022/06/13 03:55:36;;;;;;;8.35;4.55;;;;;;;;;;10444089;28;20041;-75
2022/06/13 04:00:41;;;;;;;9.07;5.10;;;;;;;;;;10424514;28;20139;-74
2022/06/13 04:05:55;;;;;;;7.47;4.60;;;;;;;;;;10426232;28;20045;-76
2022/06/13 04:11:06;;;;;;;4.47;2.90;;;;;;;;;;10448598;28;20102;-77
2022/06/13 04:16:19;;;;;;;2.47;1.85;;;;;;;;;;10447376;28;20297;-77
2022/06/13 04:21:28;;;;;;;9.60;4.50;;;;;;;;;;10445557;28;20123;-74
2022/06/13 04:26:33;;;;;;;7.93;5.43;;;;;;;;;;10431349;28;20127;-76
2022/06/13 04:31:37;;;;;;;7.07;3.60;;;;;;;;;;10431600;28;20055;-74
2022/06/13 04:36:42;;;;;;;9.15;5.10;;;;;;;;;;10428757;28;20041;-76
2022/06/13 04:41:46;;;;;;;6.80;3.97;;;;;;;;;;10450517;28;20040;-77
2022/06/13 04:46:49;;;;;;;6.80;3.83;;;;;;;;;;10452192;28;20041;-77
2022/06/13 04:51:54;;;;;;;8.82;4.65;;;;;;;;;;10435112;28;20048;-76
2022/06/13 04:56:58;;;;;;;8.57;3.95;;;;;;;;;;10432280;28;20056;-75
2022/06/13 05:02:02;;;;;;;5.75;3.90;;;;;;;;;;10446533;28;20129;-75
2022/06/13 05:07:10;;;;;;;5.95;3.60;;;;;;;;;;10425513;28;20036;-75
2022/06/13 05:12:16;;;;;;;6.50;2.78;;;;;;;;;;10445228;28;20025;-76
2022/06/13 05:17:37;;;;;;;3.47;1.90;;;;;;;;;;10421457;28;20093;-77
2022/06/13 05:22:47;;;;;;;5.32;3.00;;;;;;;;;;10422288;28;20073;-75
2022/06/13 05:27:50;;;;;;;5.68;2.70;;;;;;;;;;10420727;28;20475;-76
2022/06/13 05:32:53;;;;;;;4.75;2.22;;;;;;;;;;10438404;28;20037;-76
2022/06/13 05:37:59;;;;;;;7.45;2.88;;;;;;;;;;10423976;28;20052;-75
2022/06/13 05:43:02;;;;;;;3.67;2.28;;;;;;;;;;10437529;28;20037;-76
2022/06/13 05:48:05;;;;;;;7.47;2.87;;;;;;;;;;10438185;28;20457;-76
2022/06/13 05:53:11;;;;;;;4.28;2.33;;;;;;;;;;10423633;28;20034;-77
2022/06/13 05:58:14;;;;;;;4.80;2.45;;;;;;;;;;10426861;28;20041;-74
2022/06/13 06:03:17;;;;;;;6.00;3.63;;;;;;;;;;10412340;28;20033;-76
2022/06/13 06:08:22;;;;;;;3.00;1.73;;;;;;;;;;10415410;28;20147;-75
2022/06/13 06:13:25;;;;;;;3.28;1.40;;;;;;;;;;10418720;28;20458;-76
2022/06/13 06:18:29;;;;;;;6.85;2.90;;;;;;;;;;10432354;28;20069;-77
2022/06/13 06:23:34;;;;;;;3.80;2.22;;;;;;;;;;10416080;28;20045;-76
2022/06/13 06:28:36;;;;;;;3.28;2.47;;;;;;;;;;10412891;28;20520;-75
2022/06/13 06:33:39;;;;;;;4.00;2.50;;;;;;;;;;10417316;28;20224;-75
2022/06/13 06:38:43;;;;;;;5.40;2.88;;;;;;;;;;10431769;28;20867;-76
2022/06/13 06:43:46;;;;;;;5.53;2.60;;;;;;;;;;10405711;28;20131;-77
2022/06/13 06:48:48;;;;;;;4.30;2.03;;;;;;;;;;10428647;28;20444;-74
2022/06/13 07:04:34;;;;;;;3.08;2.13;;;;;;;;;;10430925;28;20068;-77
2022/06/13 07:09:39;;;;;;;3.28;2.33;;;;;;;;;;10420779;28;20060;-71
2022/06/13 07:14:41;;;;;;;4.38;2.60;;;;;;;;;;10416577;28;20041;-76
2022/06/13 07:19:45;;;;;;;4.68;2.50;;;;;;;;;;10419886;28;20067;-76
2022/06/13 07:24:49;;;;;;;3.28;2.40;;;;;;;;;;10409563;28;20079;-74
2022/06/13 07:29:52;;;;;;;6.25;3.00;;;;;;;;;;10432553;28;20037;-76
2022/06/13 07:34:55;;;;;;;5.88;3.05;;;;;;;;;;10412425;28;20724;-77
2022/06/13 07:39:59;;;;;;;4.25;2.78;;;;;;;;;;10407178;28;20189;-74
2022/06/13 07:45:02;;;;;;;5.57;3.10;;;;;;;;;;10431689;28;21588;-73
2022/06/13 07:50:05;;;;;;;5.18;3.25;;;;;;;;;;10427595;28;20580;-72
2022/06/13 07:55:09;;;;;;;5.68;3.45;;;;;;;;;;10407202;28;20048;-73
2022/06/13 08:00:18;;;;;;;3.97;2.88;;;;;;;;;;10426795;28;20308;-73
2022/06/13 08:05:21;;;;;;;4.88;2.78;;;;;;;;;;10421338;28;20081;-76
2022/06/13 08:10:25;;;;;;;5.57;3.42;;;;;;;;;;10427711;28;20412;-75
2022/06/13 08:15:28;;;;;;;5.40;3.10;;;;;;;;;;10409747;28;20037;-76
2022/06/13 08:20:31;;;;;;;;;;;;;;;;;;10426950;28;20250;-74
2022/06/13 08:25:36;;;;;;;3.90;2.97;;;;;;;;;;10426937;28;19936;-78
2022/06/13 08:30:41;;;;;;;4.43;2.72;;;;;;;;;;10414135;28;20121;-75
2022/06/13 08:35:44;;;;;;;3.97;2.88;;;;;;;;;;10409217;28;20072;-73
2022/06/13 08:40:52;;;;;;;5.55;2.75;;;;;;;;;;10417082;28;20119;-78
2022/06/13 08:45:58;;;;;;;3.65;3.03;;;;;;;;;;10411439;28;20120;-78
2022/06/13 08:51:04;;;;;;;3.70;2.63;;;;;;;;;;10425587;28;20040;-73
2022/06/13 08:56:10;;;;;;;6.03;2.80;;;;;;;;;;10414386;28;20785;-75
2022/06/13 09:01:14;;;;;;;4.93;2.05;;;;;;;;;;10440033;28;20025;-75
2022/06/13 09:06:19;;;;;;;6.90;2.60;;;;;;;;;;10418044;28;20090;-77
2022/06/13 09:11:24;;;;;;;7.80;2.45;;;;;;;;;;10411076;28;20578;-77
2022/06/13 09:16:28;;;;;;;6.30;2.28;;;;;;;;;;10410482;28;20372;-76
2022/06/13 09:21:35;;;;;;;4.10;2.50;;;;;;;;;;10428066;28;20047;-76
2022/06/13 09:26:43;;;;;;;6.30;2.63;;;;;;;;;;10436558;28;20068;-77
2022/06/13 09:31:48;;;;;;;2.65;1.80;;;;;;;;;;10421407;28;20061;-75
2022/06/13 09:36:53;;;;;;;4.90;2.38;;;;;;;;;;10441128;28;20155;-76
2022/06/13 09:42:06;;;;;;;4.50;2.60;;;;;;;;;;10416372;28;20118;-75
2022/06/13 09:47:15;;;;;;;5.10;2.85;;;;;;;;;;10436143;28;20033;-76
2022/06/13 09:52:21;;;;;;;3.97;2.30;;;;;;;;;;10434851;28;20290;-77
2022/06/13 09:57:32;;;;;;;3.47;2.03;;;;;;;;;;10435402;28;20029;-75
2022/06/13 10:02:38;;;;;;;5.35;2.50;;;;;;;;;;10416982;28;20111;-77
2022/06/13 10:07:44;;;;;;;5.50;2.60;;;;;;;;;;10431717;28;20416;-76
2022/06/13 10:12:54;;;;;;;4.88;2.50;;;;;;;;;;10413263;28;20142;-76
2022/06/13 10:18:07;;;;;;;3.90;1.90;;;;;;;;;;10412511;28;20048;-77
2022/06/13 10:23:17;;;;;;;5.65;2.38;;;;;;;;;;10402156;28;20465;-76
2022/06/13 10:28:29;;;;;;;4.00;2.42;;;;;;;;;;10418709;28;20569;-76
2022/06/13 10:33:40;;;;;;;4.10;1.80;;;;;;;;;;10434738;28;20033;-77
2022/06/13 10:38:56;;;;;;;3.10;2.20;;;;;;;;;;10434366;28;20036;-75
2022/06/13 10:44:02;;;;;;;3.95;2.45;;;;;;;;;;10415213;28;20299;-77
2022/06/13 10:49:07;;;;;;;3.30;2.50;;;;;;;;;;10432767;28;20123;-79
2022/06/13 10:54:12;;;;;;;4.75;2.00;;;;;;;;;;10419742;28;20068;-77
2022/06/13 10:59:23;;;;;;;2.90;1.80;;;;;;;;;;10425649;28;20048;-76
2022/06/13 11:04:26;;;;;;;5.60;2.30;;;;;;;;;;10430017;28;20041;-77
2022/06/13 11:09:32;;;;;;;7.68;2.50;;;;;;;;;;10433790;28;20136;-77
2022/06/13 11:22:37;;;;;;;5.95;1.95;;;;;;;;;;10410349;28;20495;-78
2022/06/13 11:25:23;;;;;;;4.75;1.85;;;;;;;;;;10426262;28;20101;-75
2022/06/13 11:30:37;;;;;;;5.85;2.80;;;;;;;;;;10435712;28;20517;-76
2022/06/13 11:35:41;;;;;;;4.78;1.88;;;;;;;;;;10406943;28;20343;-77
2022/06/13 11:40:45;;;;;;;3.30;1.98;;;;;;;;;;10425262;28;21524;-78
2022/06/13 11:45:57;;;;;;;3.15;2.00;;;;;;;;;;10405894;28;20989;-74
2022/06/13 11:51:01;;;;;;;2.63;1.67;;;;;;;;;;10408604;28;20076;-75
2022/06/13 11:56:06;;;;;;;3.17;2.03;;;;;;;;;;10424030;28;20036;-78
2022/06/13 12:01:17;;;;;;;3.65;2.50;;;;;;;;;;10417884;28;20329;-76
2022/06/13 12:06:19;;;;;;;4.13;2.25;;;;;;;;;;10408895;28;20405;-75
2022/06/13 12:11:23;;;;;;;2.97;2.13;;;;;;;;;;10427809;28;20140;-77
2022/06/13 12:16:33;;;;;;;6.55;2.13;;;;;;;;;;10422788;28;20096;-75
2022/06/13 12:21:39;;;;;;;3.72;1.88;;;;;;;;;;10424545;28;20041;-76
2022/06/13 12:26:44;;;;;;;3.65;1.70;;;;;;;;;;10410678;28;20037;-76
2022/06/13 12:31:55;;;;;;;3.80;2.03;;;;;;;;;;10433790;28;20041;-77
2022/06/13 12:37:08;;;;;;;3.60;1.70;;;;;;;;;;10426948;28;20608;-76
2022/06/13 12:42:15;;;;;;;2.63;1.52;;;;;;;;;;10407218;28;20045;-77
2022/06/13 12:47:30;;;;;;;6.03;3.28;;;;;;;;;;10415596;28;20110;-76
2022/06/13 12:52:39;;;;;;;4.20;1.80;;;;;;;;;;10428967;28;20060;-77
2022/06/13 12:57:50;;;;;;;4.65;2.03;;;;;;;;;;10416853;28;20060;-77
2022/06/13 13:03:01;;;;;;;5.10;1.80;;;;;;;;;;10419796;28;20041;-78
2022/06/13 13:08:10;;;;;;;6.50;2.43;;;;;;;;;;10406918;28;20037;-77
2022/06/13 13:13:20;;;;;;;3.08;1.98;;;;;;;;;;10402342;28;20526;-77
2022/06/13 13:18:32;;;;;;;4.38;1.80;;;;;;;;;;10415177;28;20835;-77
2022/06/13 13:23:40;;;;;;;3.90;2.03;;;;;;;;;;10418649;28;20064;-77
2022/06/13 13:28:47;;;;;;;3.08;1.60;;;;;;;;;;10410115;28;20037;-77
2022/06/13 13:34:01;;;;;;;4.28;1.75;;;;;;;;;;10392236;28;20073;-77
2022/06/13 13:39:10;;;;;;;3.58;1.60;;;;;;;;;;10413666;28;20040;-77
2022/06/13 13:44:16;;;;;;;4.38;1.80;;;;;;;;;;10423066;28;20485;-76
2022/06/13 13:49:25;;;;;;;4.85;1.73;;;;;;;;;;10424640;28;20098;-77
2022/06/13 13:54:31;;;;;;;3.42;1.60;;;;;;;;;;10415463;28;20138;-76
2022/06/13 13:59:39;;;;;;;3.50;1.50;;;;;;;;;;10406845;28;20036;-76
2022/06/13 14:04:48;;;;;;;4.22;1.65;;;;;;;;;;10435553;28;20413;-77
2022/06/13 14:09:51;;;;;;;4.05;1.70;;;;;;;;;;10412102;28;20076;-76
2022/06/13 14:15:09;;;;;;;5.97;1.90;;;;;;;;;;10436941;28;20029;-78
2022/06/13 14:20:23;;;;;;;3.55;1.73;;;;;;;;;;10439229;28;20036;-76
2022/06/13 14:25:27;;;;;;;5.60;2.20;;;;;;;;;;10414524;28;20199;-78
2022/06/13 14:35:56;;;;;;;2.67;1.50;;;;;;;;;;10430966;28;20078;-76
2022/06/13 14:41:02;;;;;;;5.85;3.05;;;;;;;;;;10432436;28;20116;-77
2022/06/13 14:46:16;;;;;;;3.50;1.73;;;;;;;;;;10434820;28;20029;-77
2022/06/13 14:51:28;;;;;;;5.25;1.73;;;;;;;;;;10435478;28;20063;-76
2022/06/13 14:56:35;;;;;;;3.00;1.70;;;;;;;;;;10408471;28;20106;-77
2022/06/13 15:01:40;;;;;;;5.13;1.98;;;;;;;;;;10413265;28;20135;-74
2022/06/13 15:06:51;;;;;;;4.95;1.80;;;;;;;;;;10447006;28;20047;-76
2022/06/13 15:11:54;;;;;;;3.88;1.70;;;;;;;;;;10435547;28;20052;-76
2022/06/13 15:16:58;;;;;;;16.40;5.93;;;;;;;;;;10434333;28;20119;-75
2022/06/13 15:22:04;;;;;;;6.38;1.58;;;;;;;;;;10403937;28;20064;-73
2022/06/13 15:27:07;;;;;;;4.28;2.30;;;;;;;;;;10414870;28;20098;-76
2022/06/13 15:32:24;;;;;;;5.72;1.80;;;;;;;;;;10420394;28;20103;-76
2022/06/13 15:37:35;;;;;;;4.57;1.80;;;;;;;;;;10408598;28;20515;-76
2022/06/13 15:42:40;;;;;;;5.10;1.80;;;;;;;;;;10408505;28;20083;-77
2022/06/13 15:47:45;;;;;;;6.30;2.20;;;;;;;;;;10425351;28;20176;-74
2022/06/13 15:52:50;;;;;;;3.35;1.73;;;;;;;;;;10434578;28;20033;-75
2022/06/13 15:57:55;;;;;;;5.13;2.08;;;;;;;;;;10429821;28;20053;-79
2022/06/13 16:02:59;;;;;;;6.40;2.63;;;;;;;;;;10429400;28;20049;-75
2022/06/13 16:08:04;;;;;;;4.03;2.00;;;;;;;;;;10432631;28;20148;-78
2022/06/13 16:13:08;;;;;;;5.30;2.25;;;;;;;;;;10420074;28;20555;-77
2022/06/13 16:18:29;;;;;;;8.95;3.42;;;;;;;;;;10433984;28;20091;-77
2022/06/13 16:23:34;;;;;;;3.58;1.88;;;;;;;;;;10421447;28;20083;-75
2022/06/13 16:28:37;;;;;;;3.92;2.28;;;;;;;;;;10411707;28;20083;-74
2022/06/13 16:33:43;;;;;;;5.18;2.17;;;;;;;;;;10411570;28;20401;-75
2022/06/13 16:38:48;;;;;;;13.95;5.47;;;;;;;;;;10414446;28;20075;-75
2022/06/13 16:43:52;;;;;;;5.15;1.98;;;;;;;;;;10429550;28;20458;-77
2022/06/13 16:48:56;;;;;;;4.13;2.05;;;;;;;;;;10412566;28;20037;-77
2022/06/13 16:54:01;;;;;;;4.60;1.75;;;;;;;;;;10424054;28;20064;-77
2022/06/13 16:59:07;;;;;;;12.02;5.28;;;;;;;;;;10406655;28;20060;-77
2022/06/13 17:04:10;;;;;;;12.40;6.40;;;;;;;;;;10409864;28;20036;-74
2022/06/13 17:09:16;;;;;;;7.38;4.07;;;;;;;;;;10424967;28;20056;-74
2022/06/13 17:14:42;;;;;;;3.83;1.98;;;;;;;;;;10422919;28;20037;-77
2022/06/13 17:19:46;;;;;;;5.15;2.03;;;;;;;;;;10408796;28;20435;-76
2022/06/13 17:24:51;;;;;;;7.32;2.05;;;;;;;;;;10422658;28;20071;-75
2022/06/13 17:35:15;;;;;;;3.20;1.60;;;;;;;;;;10418753;28;20466;-76
2022/06/13 17:40:20;;;;;;;5.65;1.75;;;;;;;;;;10398523;28;20065;-74
2022/06/13 17:45:23;;;;;;;4.75;1.60;;;;;;;;;;10395065;28;20045;-76
2022/06/13 17:50:26;;;;;;;3.45;1.60;;;;;;;;;;10415553;28;20465;-73
2022/06/13 17:55:29;;;;;;;;;;;;;;;;;;10428077;28;20098;-76
2022/06/13 18:00:33;;;;;;;3.47;1.63;;;;;;;;;;10431283;28;20312;-75
2022/06/13 18:05:37;;;;;;;6.47;2.70;;;;;;;;;;10410459;28;20448;-77
2022/06/13 18:10:41;;;;;;;3.63;1.60;;;;;;;;;;10409582;28;20126;-77
2022/06/13 18:15:46;;;;;;;5.95;2.10;;;;;;;;;;10434705;28;20048;-77
2022/06/13 18:20:49;;;;;;;4.22;1.70;;;;;;;;;;10437144;28;20050;-75
2022/06/13 18:25:53;;;;;;;5.70;1.67;;;;;;;;;;10447812;28;20037;-79
2022/06/13 18:30:58;;;;;;;6.65;2.60;;;;;;;;;;10436921;28;20379;-77
2022/06/13 18:36:01;;;;;;;2.92;1.90;;;;;;;;;;10441740;28;20504;-74
2022/06/13 18:41:06;;;;;;;4.97;1.70;;;;;;;;;;10421857;28;20032;-75
2022/06/13 18:46:11;;;;;;;5.38;2.60;;;;;;;;;;10415903;28;20040;-75
2022/06/13 18:51:15;;;;;;;4.65;2.03;;;;;;;;;;10434693;28;20037;-76
2022/06/13 18:56:18;;;;;;;6.63;2.10;;;;;;;;;;10430278;28;20037;-76
2022/06/13 19:01:23;;;;;;;10.25;2.58;;;;;;;;;;10453658;28;20048;-76
2022/06/13 19:06:27;;;;;;;4.43;1.60;;;;;;;;;;10423765;28;20070;-74
2022/06/13 19:11:31;;;;;;;7.25;2.10;;;;;;;;;;10429907;28;20040;-73
2022/06/13 19:16:34;;;;;;;;;;;;;;;;;;10442448;28;20094;-75
2022/06/13 19:21:38;;;;;;;5.30;1.70;;;;;;;;;;10403052;28;20056;-75
2022/06/13 19:26:47;;;;;;;7.28;3.22;;;;;;;;;;10420240;28;20036;-75
2022/06/13 19:31:50;;;;;;;7.97;2.60;;;;;;;;;;10414680;28;20049;-73
2022/06/13 19:36:56;;;;;;;3.72;1.90;;;;;;;;;;10431555;28;20057;-75
2022/06/13 19:41:58;;;;;;;9.52;3.60;;;;;;;;;;10412288;28;20446;-76
2022/06/13 19:47:01;;;;;;;12.43;2.85;;;;;;;;;;10430310;28;20052;-76
2022/06/13 19:52:07;;;;;;;12.10;5.15;;;;;;;;;;10428947;28;20044;-75
2022/06/13 19:57:10;;;;;;;6.47;3.40;;;;;;;;;;10428143;28;20036;-74
2022/06/13 20:02:13;;;;;;;4.13;2.70;;;;;;;;;;10419943;28;20120;-73
2022/06/13 20:12:37;;;;;;;4.13;1.70;;;;;;;;;;10414391;28;20044;-76
2022/06/13 20:17:40;;;;;;;6.30;2.77;;;;;;;;;;10406002;28;20395;-76
2022/06/13 20:22:44;;;;;;;5.63;2.22;;;;;;;;;;10429806;28;20041;-76
2022/06/13 20:27:47;;;;;;;2.78;1.67;;;;;;;;;;10417341;28;20468;-75
2022/06/13 20:32:50;;;;;;;4.13;2.00;;;;;;;;;;10410527;28;20068;-75
2022/06/13 20:37:54;;;;;;;4.73;2.00;;;;;;;;;;10413693;28;20306;-76
2022/06/13 20:42:59;;;;;;;8.13;2.85;;;;;;;;;;10411101;28;20124;-76
2022/06/13 20:48:06;;;;;;;4.38;1.85;;;;;;;;;;10414347;28;20041;-73
2022/06/13 20:53:10;;;;;;;6.18;2.08;;;;;;;;;;10425013;28;20102;-75
2022/06/13 20:58:13;;;;;;;6.88;2.20;;;;;;;;;;10426871;28;20056;-76
2022/06/13 21:03:16;;;;;;;5.25;2.50;;;;;;;;;;10416391;28;20076;-77
2022/06/13 21:08:22;;;;;;;6.40;2.33;;;;;;;;;;10412140;28;20396;-78
2022/06/13 21:13:24;;;;;;;5.32;2.15;;;;;;;;;;10428496;28;20041;-76
2022/06/13 21:18:30;;;;;;;7.63;2.20;;;;;;;;;;10429537;28;20033;-76
2022/06/13 21:23:34;;;;;;;4.85;1.85;;;;;;;;;;10437755;28;20041;-76
2022/06/13 21:28:38;;;;;;;4.90;1.98;;;;;;;;;;10424191;28;20106;-76
2022/06/13 21:33:40;;;;;;;5.18;1.98;;;;;;;;;;10420245;28;20061;-77
2022/06/13 21:38:45;;;;;;;3.75;2.28;;;;;;;;;;10432828;28;20456;-76
2022/06/13 21:43:48;;;;;;;7.90;2.25;;;;;;;;;;10434268;28;20120;-76
2022/06/13 21:48:51;;;;;;;4.05;2.10;;;;;;;;;;10435876;28;20029;-77
2022/06/13 21:53:55;;;;;;;5.22;2.03;;;;;;;;;;10422316;28;20128;-77
2022/06/13 21:58:58;;;;;;;3.00;2.08;;;;;;;;;;10415462;28;20477;-73
2022/06/13 22:04:01;;;;;;;4.90;2.07;;;;;;;;;;10434999;28;20378;-73
2022/06/13 22:09:06;;;;;;;4.97;2.03;;;;;;;;;;10438925;28;20037;-76
2022/06/13 22:14:09;;;;;;;4.75;2.60;;;;;;;;;;10418376;28;20436;-77
2022/06/13 22:19:12;;;;;;;;;;;;;;;;;;10434838;28;20029;-76
2022/06/13 22:24:16;;;;;;;5.70;2.08;;;;;;;;;;10416115;28;19964;-76
2022/06/13 22:29:19;;;;;;;3.70;1.90;;;;;;;;;;10418762;28;20033;-75
2022/06/13 22:34:22;;;;;;;6.38;1.95;;;;;;;;;;10434808;28;20045;-76
2022/06/13 22:39:27;;;;;;;8.63;2.20;;;;;;;;;;10419893;28;20444;-77
2022/06/13 22:44:30;;;;;;;6.43;2.15;;;;;;;;;;10416669;28;20127;-77
2022/06/13 22:49:48;;;;;;;7.60;2.17;;;;;;;;;;10435466;28;20032;-77
2022/06/13 22:54:53;;;;;;;4.78;2.10;;;;;;;;;;10412383;28;20060;-74
2022/06/13 22:59:57;;;;;;;5.00;2.40;;;;;;;;;;10435184;28;20037;-77
2022/06/13 23:05:00;;;;;;;5.05;2.20;;;;;;;;;;10415671;28;20093;-77
2022/06/13 23:10:05;;;;;;;4.87;2.23;;;;;;;;;;10432570;28;20045;-75
2022/06/13 23:15:09;;;;;;;5.70;2.20;;;;;;;;;;10431693;28;20150;-75
2022/06/13 23:20:14;;;;;;;6.85;1.73;;;;;;;;;;10435526;28;20037;-76
2022/06/13 23:25:18;;;;;;;9.63;2.50;;;;;;;;;;10414012;28;20175;-76
2022/06/13 23:30:22;;;;;;;5.03;2.00;;;;;;;;;;10433144;28;20140;-75
2022/06/13 23:35:24;;;;;;;8.53;2.50;;;;;;;;;;10428870;28;20106;-76
2022/06/13 23:40:29;;;;;;;6.03;2.35;;;;;;;;;;10433606;28;20072;-75
2022/06/13 23:45:32;;;;;;;4.80;2.20;;;;;;;;;;10429559;28;20040;-76
2022/06/13 23:50:38;;;;;;;6.47;2.47;;;;;;;;;;10416388;28;20757;-75
2022/06/13 23:55:43;;;;;;;5.28;2.20;;;;;;;;;;10431704;28;20040;-75
